sensor_id;sensor_type;location;lat;lon;timestamp;temperature;humidity
22769;DHT22;13001;51.968;5.918;2024-03-22T00:00:11;12.90;99.90
22769;DHT22;13001;51.968;5.918;2024-03-22T00:02:38;12.90;99.90
22769;DHT22;13001;51.968;5.918;2024-03-22T00:05:06;12.90;99.90
22769;DHT22;13001;51.968;5.918;2024-03-22T00:07:34;12.90;99.90
22769;DHT22;13001;51.968;5.918;2024-03-22T00:10:01;13.00;99.90
22769;DHT22;13001;51.968;5.918;2024-03-22T00:12:29;13.00;99.90
22769;DHT22;13001;51.968;5.918;2024-03-22T00:14:56;13.00;99.90
22769;DHT22;13001;51.968;5.918;2024-03-22T00:17:24;13.00;99.90
22769;DHT22;13001;51.968;5.918;2024-03-22T00:19:52;13.00;99.90
22769;DHT22;13001;51.968;5.918;2024-03-22T00:22:19;13.00;99.90
22769;DHT22;13001;51.968;5.918;2024-03-22T00:24:47;12.90;99.90
22769;DHT22;13001;51.968;5.918;2024-03-22T00:27:14;12.80;99.90
22769;DHT22;13001;51.968;5.918;2024-03-22T00:29:42;12.70;99.90
22769;DHT22;13001;51.968;5.918;2024-03-22T00:32:10;12.70;99.90
22769;DHT22;13001;51.968;5.918;2024-03-22T00:34:37;12.60;99.90
22769;DHT22;13001;51.968;5.918;2024-03-22T00:37:05;12.50;99.90
22769;DHT22;13001;51.968;5.918;2024-03-22T00:39:34;12.50;99.90
22769;DHT22;13001;51.968;5.918;2024-03-22T00:42:04;12.50;99.90
22769;DHT22;13001;51.968;5.918;2024-03-22T00:44:31;12.50;99.90
22769;DHT22;13001;51.968;5.918;2024-03-22T00:46:59;12.60;99.90
22769;DHT22;13001;51.968;5.918;2024-03-22T00:49:28;12.70;99.90
22769;DHT22;13001;51.968;5.918;2024-03-22T00:51:55;12.80;99.90
22769;DHT22;13001;51.968;5.918;2024-03-22T00:54:23;12.90;99.90
22769;DHT22;13001;51.968;5.918;2024-03-22T00:56:50;12.90;99.90
22769;DHT22;13001;51.968;5.918;2024-03-22T00:59:18;13.00;99.90
22769;DHT22;13001;51.968;5.918;2024-03-22T01:01:45;13.00;99.90
22769;DHT22;13001;51.968;5.918;2024-03-22T01:04:13;13.00;99.90
22769;DHT22;13001;51.968;5.918;2024-03-22T01:06:40;13.10;99.90
22769;DHT22;13001;51.968;5.918;2024-03-22T01:09:08;13.00;99.90
22769;DHT22;13001;51.968;5.918;2024-03-22T01:11:35;13.10;99.90
22769;DHT22;13001;51.968;5.918;2024-03-22T01:14:03;13.10;99.90
22769;DHT22;13001;51.968;5.918;2024-03-22T01:16:30;13.10;99.90
22769;DHT22;13001;51.968;5.918;2024-03-22T01:18:58;13.10;99.90
22769;DHT22;13001;51.968;5.918;2024-03-22T01:21:25;13.10;99.90
22769;DHT22;13001;51.968;5.918;2024-03-22T01:23:53;13.10;99.90
22769;DHT22;13001;51.968;5.918;2024-03-22T01:26:21;13.10;99.90
22769;DHT22;13001;51.968;5.918;2024-03-22T01:28:49;13.10;99.90
22769;DHT22;13001;51.968;5.918;2024-03-22T01:31:16;13.10;99.90
22769;DHT22;13001;51.968;5.918;2024-03-22T01:33:44;13.10;99.90
22769;DHT22;13001;51.968;5.918;2024-03-22T01:36:11;13.10;99.90
22769;DHT22;13001;51.968;5.918;2024-03-22T01:38:39;13.00;99.90
22769;DHT22;13001;51.968;5.918;2024-03-22T01:41:06;13.00;99.90
22769;DHT22;13001;51.968;5.918;2024-03-22T01:43:34;13.00;99.90
22769;DHT22;13001;51.968;5.918;2024-03-22T01:46:01;13.00;99.90
22769;DHT22;13001;51.968;5.918;2024-03-22T01:48:29;13.00;99.90
22769;DHT22;13001;51.968;5.918;2024-03-22T01:50:56;12.90;99.90
22769;DHT22;13001;51.968;5.918;2024-03-22T01:53:24;12.90;99.90
22769;DHT22;13001;51.968;5.918;2024-03-22T01:55:52;12.90;99.90
22769;DHT22;13001;51.968;5.918;2024-03-22T01:58:20;12.90;99.90
22769;DHT22;13001;51.968;5.918;2024-03-22T02:00:48;12.90;99.90
22769;DHT22;13001;51.968;5.918;2024-03-22T02:03:16;12.90;99.90
22769;DHT22;13001;51.968;5.918;2024-03-22T02:05:44;12.90;99.90
22769;DHT22;13001;51.968;5.918;2024-03-22T02:08:11;12.90;99.90
22769;DHT22;13001;51.968;5.918;2024-03-22T02:10:39;12.90;99.90
22769;DHT22;13001;51.968;5.918;2024-03-22T02:13:07;12.90;99.90
22769;DHT22;13001;51.968;5.918;2024-03-22T02:15:34;12.80;99.90
22769;DHT22;13001;51.968;5.918;2024-03-22T02:18:02;12.80;99.90
22769;DHT22;13001;51.968;5.918;2024-03-22T02:20:29;12.80;99.90
22769;DHT22;13001;51.968;5.918;2024-03-22T02:22:57;12.80;99.90
22769;DHT22;13001;51.968;5.918;2024-03-22T02:25:24;12.80;99.90
22769;DHT22;13001;51.968;5.918;2024-03-22T02:27:52;12.80;99.90
22769;DHT22;13001;51.968;5.918;2024-03-22T02:30:19;12.90;99.90
22769;DHT22;13001;51.968;5.918;2024-03-22T02:32:47;12.90;99.90
22769;DHT22;13001;51.968;5.918;2024-03-22T02:35:14;12.90;99.90
22769;DHT22;13001;51.968;5.918;2024-03-22T02:37:42;13.00;99.90
22769;DHT22;13001;51.968;5.918;2024-03-22T02:40:11;13.00;99.90
22769;DHT22;13001;51.968;5.918;2024-03-22T02:42:39;13.00;99.90
22769;DHT22;13001;51.968;5.918;2024-03-22T02:45:07;13.00;99.90
22769;DHT22;13001;51.968;5.918;2024-03-22T02:47:34;13.00;99.90
22769;DHT22;13001;51.968;5.918;2024-03-22T02:50:02;13.00;99.90
22769;DHT22;13001;51.968;5.918;2024-03-22T02:52:30;13.00;99.90
22769;DHT22;13001;51.968;5.918;2024-03-22T02:54:57;12.90;99.90
22769;DHT22;13001;51.968;5.918;2024-03-22T02:57:24;12.90;99.90
22769;DHT22;13001;51.968;5.918;2024-03-22T02:59:52;12.90;99.90
22769;DHT22;13001;51.968;5.918;2024-03-22T03:02:19;12.90;99.90
22769;DHT22;13001;51.968;5.918;2024-03-22T03:04:47;12.90;99.90
22769;DHT22;13001;51.968;5.918;2024-03-22T03:07:15;12.90;99.90
22769;DHT22;13001;51.968;5.918;2024-03-22T03:09:43;12.90;99.90
22769;DHT22;13001;51.968;5.918;2024-03-22T03:12:10;13.00;99.90
22769;DHT22;13001;51.968;5.918;2024-03-22T03:14:38;12.90;99.90
22769;DHT22;13001;51.968;5.918;2024-03-22T03:17:05;13.00;99.90
22769;DHT22;13001;51.968;5.918;2024-03-22T03:19:33;12.90;99.90
22769;DHT22;13001;51.968;5.918;2024-03-22T03:22:00;12.90;99.90
22769;DHT22;13001;51.968;5.918;2024-03-22T03:24:28;12.90;99.90
22769;DHT22;13001;51.968;5.918;2024-03-22T03:26:55;12.90;99.90
22769;DHT22;13001;51.968;5.918;2024-03-22T03:29:23;12.90;99.90
22769;DHT22;13001;51.968;5.918;2024-03-22T03:31:50;12.80;99.90
22769;DHT22;13001;51.968;5.918;2024-03-22T03:34:18;12.80;99.90
22769;DHT22;13001;51.968;5.918;2024-03-22T03:36:47;12.80;99.90
22769;DHT22;13001;51.968;5.918;2024-03-22T03:39:15;12.80;99.90
22769;DHT22;13001;51.968;5.918;2024-03-22T03:41:42;12.80;99.90
22769;DHT22;13001;51.968;5.918;2024-03-22T03:44:10;12.80;99.90
22769;DHT22;13001;51.968;5.918;2024-03-22T03:46:37;12.80;99.90
22769;DHT22;13001;51.968;5.918;2024-03-22T03:49:05;12.80;99.90
22769;DHT22;13001;51.968;5.918;2024-03-22T03:51:32;12.80;99.90
22769;DHT22;13001;51.968;5.918;2024-03-22T03:54:00;12.90;99.90
22769;DHT22;13001;51.968;5.918;2024-03-22T03:56:27;12.90;99.90
22769;DHT22;13001;51.968;5.918;2024-03-22T03:58:55;12.90;99.90
22769;DHT22;13001;51.968;5.918;2024-03-22T04:01:22;12.90;99.90
22769;DHT22;13001;51.968;5.918;2024-03-22T04:03:50;12.90;99.90
22769;DHT22;13001;51.968;5.918;2024-03-22T04:06:18;13.00;99.90
22769;DHT22;13001;51.968;5.918;2024-03-22T04:08:45;13.00;99.90
22769;DHT22;13001;51.968;5.918;2024-03-22T04:11:13;13.10;99.90
22769;DHT22;13001;51.968;5.918;2024-03-22T04:13:42;13.10;99.90
22769;DHT22;13001;51.968;5.918;2024-03-22T04:16:09;13.10;99.90
22769;DHT22;13001;51.968;5.918;2024-03-22T04:18:37;13.10;99.90
22769;DHT22;13001;51.968;5.918;2024-03-22T04:21:05;13.10;99.90
22769;DHT22;13001;51.968;5.918;2024-03-22T04:23:33;13.10;99.90
22769;DHT22;13001;51.968;5.918;2024-03-22T04:26:01;13.10;99.90
22769;DHT22;13001;51.968;5.918;2024-03-22T04:28:29;13.10;99.90
22769;DHT22;13001;51.968;5.918;2024-03-22T04:31:00;13.00;99.90
22769;DHT22;13001;51.968;5.918;2024-03-22T04:33:29;13.00;99.90
22769;DHT22;13001;51.968;5.918;2024-03-22T04:35:57;13.00;99.90
22769;DHT22;13001;51.968;5.918;2024-03-22T04:38:25;13.00;99.90
22769;DHT22;13001;51.968;5.918;2024-03-22T04:40:53;13.00;99.90
22769;DHT22;13001;51.968;5.918;2024-03-22T04:43:21;13.00;99.90
22769;DHT22;13001;51.968;5.918;2024-03-22T04:45:49;13.00;99.90
22769;DHT22;13001;51.968;5.918;2024-03-22T04:48:19;13.00;99.90
22769;DHT22;13001;51.968;5.918;2024-03-22T04:50:48;13.00;99.90
22769;DHT22;13001;51.968;5.918;2024-03-22T04:53:20;12.90;99.90
22769;DHT22;13001;51.968;5.918;2024-03-22T04:55:48;12.90;99.90
22769;DHT22;13001;51.968;5.918;2024-03-22T04:58:18;12.90;99.90
22769;DHT22;13001;51.968;5.918;2024-03-22T05:00:56;12.90;99.90
22769;DHT22;13001;51.968;5.918;2024-03-22T05:03:16;12.90;99.90
22769;DHT22;13001;51.968;5.918;2024-03-22T05:05:44;12.90;99.90
22769;DHT22;13001;51.968;5.918;2024-03-22T05:08:11;12.90;99.90
22769;DHT22;13001;51.968;5.918;2024-03-22T05:10:39;12.90;99.90
22769;DHT22;13001;51.968;5.918;2024-03-22T05:13:06;12.80;99.90
22769;DHT22;13001;51.968;5.918;2024-03-22T05:15:34;12.80;99.90
22769;DHT22;13001;51.968;5.918;2024-03-22T05:18:01;12.80;99.90
22769;DHT22;13001;51.968;5.918;2024-03-22T05:20:29;12.80;99.90
22769;DHT22;13001;51.968;5.918;2024-03-22T05:22:59;12.80;99.90
22769;DHT22;13001;51.968;5.918;2024-03-22T05:25:26;12.80;99.90
22769;DHT22;13001;51.968;5.918;2024-03-22T05:27:53;12.70;99.90
22769;DHT22;13001;51.968;5.918;2024-03-22T05:30:21;12.70;99.90
22769;DHT22;13001;51.968;5.918;2024-03-22T05:32:48;12.70;99.90
22769;DHT22;13001;51.968;5.918;2024-03-22T05:35:16;12.70;99.90
22769;DHT22;13001;51.968;5.918;2024-03-22T05:37:45;12.70;99.90
22769;DHT22;13001;51.968;5.918;2024-03-22T05:40:13;12.70;99.90
22769;DHT22;13001;51.968;5.918;2024-03-22T05:42:40;12.60;99.90
22769;DHT22;13001;51.968;5.918;2024-03-22T05:45:09;12.60;99.90
22769;DHT22;13001;51.968;5.918;2024-03-22T05:47:39;12.60;99.90
22769;DHT22;13001;51.968;5.918;2024-03-22T05:50:08;12.60;99.90
22769;DHT22;13001;51.968;5.918;2024-03-22T05:52:36;12.60;99.90
22769;DHT22;13001;51.968;5.918;2024-03-22T05:55:03;12.60;99.90
22769;DHT22;13001;51.968;5.918;2024-03-22T05:57:32;12.60;99.90
22769;DHT22;13001;51.968;5.918;2024-03-22T06:00:00;12.60;99.90
22769;DHT22;13001;51.968;5.918;2024-03-22T06:02:28;12.60;99.90
22769;DHT22;13001;51.968;5.918;2024-03-22T06:04:56;12.60;99.90
22769;DHT22;13001;51.968;5.918;2024-03-22T06:07:23;12.60;99.90
22769;DHT22;13001;51.968;5.918;2024-03-22T06:09:52;12.60;99.90
22769;DHT22;13001;51.968;5.918;2024-03-22T06:12:19;12.70;99.90
22769;DHT22;13001;51.968;5.918;2024-03-22T06:14:48;12.70;99.90
22769;DHT22;13001;51.968;5.918;2024-03-22T06:17:17;12.70;99.90
22769;DHT22;13001;51.968;5.918;2024-03-22T06:19:44;12.70;99.90
22769;DHT22;13001;51.968;5.918;2024-03-22T06:22:12;12.70;99.90
22769;DHT22;13001;51.968;5.918;2024-03-22T06:24:39;12.70;99.90
22769;DHT22;13001;51.968;5.918;2024-03-22T06:27:07;12.70;99.90
22769;DHT22;13001;51.968;5.918;2024-03-22T06:29:34;12.80;99.90
22769;DHT22;13001;51.968;5.918;2024-03-22T06:32:02;12.80;99.90
22769;DHT22;13001;51.968;5.918;2024-03-22T06:34:30;12.80;99.90
22769;DHT22;13001;51.968;5.918;2024-03-22T06:36:57;12.90;99.90
22769;DHT22;13001;51.968;5.918;2024-03-22T06:39:25;12.90;99.90
22769;DHT22;13001;51.968;5.918;2024-03-22T06:41:52;12.90;99.90
22769;DHT22;13001;51.968;5.918;2024-03-22T06:44:21;12.90;99.90
22769;DHT22;13001;51.968;5.918;2024-03-22T06:46:49;13.00;99.90
22769;DHT22;13001;51.968;5.918;2024-03-22T06:49:16;13.00;99.90
22769;DHT22;13001;51.968;5.918;2024-03-22T06:51:44;13.10;99.90
22769;DHT22;13001;51.968;5.918;2024-03-22T06:54:13;13.10;99.90
22769;DHT22;13001;51.968;5.918;2024-03-22T06:56:40;13.10;99.90
22769;DHT22;13001;51.968;5.918;2024-03-22T06:59:08;13.20;99.90
22769;DHT22;13001;51.968;5.918;2024-03-22T07:01:35;13.30;99.90
22769;DHT22;13001;51.968;5.918;2024-03-22T07:04:05;13.30;99.90
22769;DHT22;13001;51.968;5.918;2024-03-22T07:06:32;13.40;99.90
22769;DHT22;13001;51.968;5.918;2024-03-22T07:09:00;13.50;99.90
22769;DHT22;13001;51.968;5.918;2024-03-22T07:11:27;13.50;99.90
22769;DHT22;13001;51.968;5.918;2024-03-22T07:13:55;13.60;99.90
22769;DHT22;13001;51.968;5.918;2024-03-22T07:16:22;13.60;99.90
22769;DHT22;13001;51.968;5.918;2024-03-22T07:18:50;13.60;99.90
22769;DHT22;13001;51.968;5.918;2024-03-22T07:21:18;13.60;99.90
22769;DHT22;13001;51.968;5.918;2024-03-22T07:23:45;13.60;99.90
22769;DHT22;13001;51.968;5.918;2024-03-22T07:26:12;13.60;99.90
22769;DHT22;13001;51.968;5.918;2024-03-22T07:28:40;13.70;99.90
22769;DHT22;13001;51.968;5.918;2024-03-22T07:31:08;13.90;99.90
22769;DHT22;13001;51.968;5.918;2024-03-22T07:33:35;14.10;99.90
22769;DHT22;13001;51.968;5.918;2024-03-22T07:36:03;14.30;99.90
22769;DHT22;13001;51.968;5.918;2024-03-22T07:38:31;14.40;99.90
22769;DHT22;13001;51.968;5.918;2024-03-22T07:40:58;14.50;99.90
22769;DHT22;13001;51.968;5.918;2024-03-22T07:43:26;14.40;99.90
22769;DHT22;13001;51.968;5.918;2024-03-22T07:45:54;14.20;99.90
22769;DHT22;13001;51.968;5.918;2024-03-22T07:48:21;14.10;99.90
22769;DHT22;13001;51.968;5.918;2024-03-22T07:51:01;13.90;99.90
22769;DHT22;13001;51.968;5.918;2024-03-22T07:53:25;13.80;99.90
22769;DHT22;13001;51.968;5.918;2024-03-22T07:55:53;13.70;99.90
22769;DHT22;13001;51.968;5.918;2024-03-22T07:58:21;13.60;99.90
22769;DHT22;13001;51.968;5.918;2024-03-22T08:00:49;13.50;99.90
22769;DHT22;13001;51.968;5.918;2024-03-22T08:03:19;13.50;99.90
22769;DHT22;13001;51.968;5.918;2024-03-22T08:05:46;13.40;99.90
22769;DHT22;13001;51.968;5.918;2024-03-22T08:08:14;13.40;99.90
22769;DHT22;13001;51.968;5.918;2024-03-22T08:10:41;13.30;99.90
22769;DHT22;13001;51.968;5.918;2024-03-22T08:13:09;13.20;99.90
22769;DHT22;13001;51.968;5.918;2024-03-22T08:15:37;13.20;99.90
22769;DHT22;13001;51.968;5.918;2024-03-22T08:18:05;13.20;99.90
22769;DHT22;13001;51.968;5.918;2024-03-22T08:20:32;13.20;99.90
22769;DHT22;13001;51.968;5.918;2024-03-22T08:23:01;13.20;99.90
22769;DHT22;13001;51.968;5.918;2024-03-22T08:25:29;13.20;99.90
22769;DHT22;13001;51.968;5.918;2024-03-22T08:27:57;13.20;99.90
22769;DHT22;13001;51.968;5.918;2024-03-22T08:30:25;13.10;99.90
22769;DHT22;13001;51.968;5.918;2024-03-22T08:32:52;13.20;99.90
22769;DHT22;13001;51.968;5.918;2024-03-22T08:35:20;13.10;99.90
22769;DHT22;13001;51.968;5.918;2024-03-22T08:37:49;13.10;99.90
22769;DHT22;13001;51.968;5.918;2024-03-22T08:40:16;13.10;99.90
22769;DHT22;13001;51.968;5.918;2024-03-22T08:42:44;13.00;99.90
22769;DHT22;13001;51.968;5.918;2024-03-22T08:45:11;13.10;99.90
22769;DHT22;13001;51.968;5.918;2024-03-22T08:47:39;13.10;99.90
22769;DHT22;13001;51.968;5.918;2024-03-22T08:50:12;13.10;99.90
22769;DHT22;13001;51.968;5.918;2024-03-22T08:52:39;13.20;99.90
22769;DHT22;13001;51.968;5.918;2024-03-22T08:55:07;13.40;99.90
22769;DHT22;13001;51.968;5.918;2024-03-22T08:57:34;13.50;99.90
22769;DHT22;13001;51.968;5.918;2024-03-22T09:00:02;13.60;99.90
22769;DHT22;13001;51.968;5.918;2024-03-22T09:02:30;13.60;99.90
22769;DHT22;13001;51.968;5.918;2024-03-22T09:04:57;13.60;99.90
22769;DHT22;13001;51.968;5.918;2024-03-22T09:07:25;13.50;99.90
22769;DHT22;13001;51.968;5.918;2024-03-22T09:09:52;13.50;99.90
22769;DHT22;13001;51.968;5.918;2024-03-22T09:12:20;13.50;99.90
22769;DHT22;13001;51.968;5.918;2024-03-22T09:14:47;13.60;99.90
22769;DHT22;13001;51.968;5.918;2024-03-22T09:17:15;13.60;99.90
22769;DHT22;13001;51.968;5.918;2024-03-22T09:19:44;13.60;99.90
22769;DHT22;13001;51.968;5.918;2024-03-22T09:22:11;13.60;99.90
22769;DHT22;13001;51.968;5.918;2024-03-22T09:24:39;13.50;99.90
22769;DHT22;13001;51.968;5.918;2024-03-22T09:27:06;13.50;99.90
22769;DHT22;13001;51.968;5.918;2024-03-22T09:29:36;13.50;99.90
22769;DHT22;13001;51.968;5.918;2024-03-22T09:32:04;13.50;99.90
22769;DHT22;13001;51.968;5.918;2024-03-22T09:34:31;13.40;99.90
22769;DHT22;13001;51.968;5.918;2024-03-22T09:36:59;13.40;99.90
22769;DHT22;13001;51.968;5.918;2024-03-22T09:39:27;13.40;99.90
22769;DHT22;13001;51.968;5.918;2024-03-22T09:41:56;13.30;99.90
22769;DHT22;13001;51.968;5.918;2024-03-22T09:44:26;13.30;99.90
22769;DHT22;13001;51.968;5.918;2024-03-22T09:46:55;13.30;99.90
22769;DHT22;13001;51.968;5.918;2024-03-22T09:49:24;13.30;99.90
22769;DHT22;13001;51.968;5.918;2024-03-22T09:51:52;13.30;99.90
22769;DHT22;13001;51.968;5.918;2024-03-22T09:54:21;13.30;99.90
22769;DHT22;13001;51.968;5.918;2024-03-22T09:56:50;13.30;99.90
22769;DHT22;13001;51.968;5.918;2024-03-22T09:59:18;13.30;99.90
22769;DHT22;13001;51.968;5.918;2024-03-22T10:01:46;13.30;99.90
22769;DHT22;13001;51.968;5.918;2024-03-22T10:04:14;13.30;99.90
22769;DHT22;13001;51.968;5.918;2024-03-22T10:06:42;13.30;99.90
22769;DHT22;13001;51.968;5.918;2024-03-22T10:09:09;13.30;99.90
22769;DHT22;13001;51.968;5.918;2024-03-22T10:11:37;13.30;99.90
22769;DHT22;13001;51.968;5.918;2024-03-22T10:14:05;13.30;99.90
22769;DHT22;13001;51.968;5.918;2024-03-22T10:16:34;13.30;99.90
22769;DHT22;13001;51.968;5.918;2024-03-22T10:19:02;13.30;99.90
22769;DHT22;13001;51.968;5.918;2024-03-22T10:21:30;13.30;99.90
22769;DHT22;13001;51.968;5.918;2024-03-22T10:23:58;13.40;99.90
22769;DHT22;13001;51.968;5.918;2024-03-22T10:26:25;13.40;99.90
22769;DHT22;13001;51.968;5.918;2024-03-22T10:28:53;13.50;99.90
22769;DHT22;13001;51.968;5.918;2024-03-22T10:31:20;13.50;99.90
22769;DHT22;13001;51.968;5.918;2024-03-22T10:33:49;13.50;99.90
22769;DHT22;13001;51.968;5.918;2024-03-22T10:36:18;13.50;99.90
22769;DHT22;13001;51.968;5.918;2024-03-22T10:38:47;13.60;99.90
22769;DHT22;13001;51.968;5.918;2024-03-22T10:41:17;13.60;99.90
22769;DHT22;13001;51.968;5.918;2024-03-22T10:43:45;13.60;99.90
22769;DHT22;13001;51.968;5.918;2024-03-22T10:46:13;13.60;99.90
22769;DHT22;13001;51.968;5.918;2024-03-22T10:48:41;13.70;99.90
22769;DHT22;13001;51.968;5.918;2024-03-22T10:51:12;13.70;99.90
22769;DHT22;13001;51.968;5.918;2024-03-22T10:53:42;13.70;99.90
22769;DHT22;13001;51.968;5.918;2024-03-22T10:56:11;13.80;99.90
22769;DHT22;13001;51.968;5.918;2024-03-22T10:58:41;13.80;99.90
22769;DHT22;13001;51.968;5.918;2024-03-22T11:01:32;13.80;99.90
22769;DHT22;13001;51.968;5.918;2024-03-22T11:03:39;13.80;99.90
22769;DHT22;13001;51.968;5.918;2024-03-22T11:06:08;13.70;99.90
22769;DHT22;13001;51.968;5.918;2024-03-22T11:08:37;13.70;99.90
22769;DHT22;13001;51.968;5.918;2024-03-22T11:11:11;13.60;99.90
22769;DHT22;13001;51.968;5.918;2024-03-22T11:13:41;13.60;99.90
22769;DHT22;13001;51.968;5.918;2024-03-22T11:16:10;13.50;99.90
22769;DHT22;13001;51.968;5.918;2024-03-22T11:18:39;13.40;99.90
22769;DHT22;13001;51.968;5.918;2024-03-22T11:21:06;13.40;99.90
22769;DHT22;13001;51.968;5.918;2024-03-22T11:23:36;13.30;99.90
22769;DHT22;13001;51.968;5.918;2024-03-22T11:26:04;13.30;99.90
22769;DHT22;13001;51.968;5.918;2024-03-22T11:28:33;13.30;99.90
22769;DHT22;13001;51.968;5.918;2024-03-22T11:31:02;13.30;99.90
22769;DHT22;13001;51.968;5.918;2024-03-22T11:33:30;13.20;99.90
22769;DHT22;13001;51.968;5.918;2024-03-22T11:36:04;13.20;99.90
22769;DHT22;13001;51.968;5.918;2024-03-22T11:38:32;13.20;99.90
22769;DHT22;13001;51.968;5.918;2024-03-22T11:41:01;13.20;99.90
22769;DHT22;13001;51.968;5.918;2024-03-22T11:43:29;13.20;99.90
22769;DHT22;13001;51.968;5.918;2024-03-22T11:45:57;13.20;99.90
22769;DHT22;13001;51.968;5.918;2024-03-22T11:48:27;13.20;99.90
22769;DHT22;13001;51.968;5.918;2024-03-22T11:50:54;13.30;99.90
22769;DHT22;13001;51.968;5.918;2024-03-22T11:53:28;13.40;99.90
22769;DHT22;13001;51.968;5.918;2024-03-22T11:55:55;13.40;99.90
22769;DHT22;13001;51.968;5.918;2024-03-22T11:58:28;13.50;99.90
22769;DHT22;13001;51.968;5.918;2024-03-22T12:00:57;13.60;99.90
22769;DHT22;13001;51.968;5.918;2024-03-22T12:03:25;13.60;99.90
22769;DHT22;13001;51.968;5.918;2024-03-22T12:05:54;13.60;99.90
22769;DHT22;13001;51.968;5.918;2024-03-22T12:08:22;13.60;99.90
22769;DHT22;13001;51.968;5.918;2024-03-22T12:10:50;13.60;99.90
22769;DHT22;13001;51.968;5.918;2024-03-22T12:13:17;13.60;99.90
22769;DHT22;13001;51.968;5.918;2024-03-22T12:15:45;13.60;99.90
22769;DHT22;13001;51.968;5.918;2024-03-22T12:18:12;13.60;99.90
22769;DHT22;13001;51.968;5.918;2024-03-22T12:20:41;13.50;99.90
22769;DHT22;13001;51.968;5.918;2024-03-22T12:23:09;13.60;99.90
22769;DHT22;13001;51.968;5.918;2024-03-22T12:25:37;13.60;99.90
22769;DHT22;13001;51.968;5.918;2024-03-22T12:28:04;13.70;99.90
22769;DHT22;13001;51.968;5.918;2024-03-22T12:30:32;13.70;99.90
22769;DHT22;13001;51.968;5.918;2024-03-22T12:33:01;13.80;99.90
22769;DHT22;13001;51.968;5.918;2024-03-22T12:35:28;13.80;99.90
22769;DHT22;13001;51.968;5.918;2024-03-22T12:37:57;13.90;99.90
22769;DHT22;13001;51.968;5.918;2024-03-22T12:40:25;13.90;99.90
22769;DHT22;13001;51.968;5.918;2024-03-22T12:42:56;13.90;99.90
22769;DHT22;13001;51.968;5.918;2024-03-22T12:45:23;14.00;99.90
22769;DHT22;13001;51.968;5.918;2024-03-22T12:47:50;14.00;99.90
22769;DHT22;13001;51.968;5.918;2024-03-22T12:50:19;14.00;99.90
22769;DHT22;13001;51.968;5.918;2024-03-22T12:52:46;14.00;99.90
22769;DHT22;13001;51.968;5.918;2024-03-22T12:55:14;14.00;99.90
22769;DHT22;13001;51.968;5.918;2024-03-22T12:57:42;13.90;99.90
22769;DHT22;13001;51.968;5.918;2024-03-22T13:00:10;13.90;99.90
22769;DHT22;13001;51.968;5.918;2024-03-22T13:02:42;13.90;99.90
22769;DHT22;13001;51.968;5.918;2024-03-22T13:05:09;13.90;99.90
22769;DHT22;13001;51.968;5.918;2024-03-22T13:07:37;14.00;99.90
22769;DHT22;13001;51.968;5.918;2024-03-22T13:10:05;14.00;99.90
22769;DHT22;13001;51.968;5.918;2024-03-22T13:12:33;14.00;99.90
22769;DHT22;13001;51.968;5.918;2024-03-22T13:15:01;13.90;99.90
22769;DHT22;13001;51.968;5.918;2024-03-22T13:17:29;14.00;99.90
22769;DHT22;13001;51.968;5.918;2024-03-22T13:19:57;14.00;99.90
22769;DHT22;13001;51.968;5.918;2024-03-22T13:22:24;13.90;99.90
22769;DHT22;13001;51.968;5.918;2024-03-22T13:24:53;14.00;99.90
22769;DHT22;13001;51.968;5.918;2024-03-22T13:27:21;14.00;99.90
22769;DHT22;13001;51.968;5.918;2024-03-22T13:29:49;14.10;99.90
22769;DHT22;13001;51.968;5.918;2024-03-22T13:32:16;14.10;99.90
22769;DHT22;13001;51.968;5.918;2024-03-22T13:34:46;14.00;99.90
22769;DHT22;13001;51.968;5.918;2024-03-22T13:37:13;14.00;99.90
22769;DHT22;13001;51.968;5.918;2024-03-22T13:39:41;14.10;99.90
22769;DHT22;13001;51.968;5.918;2024-03-22T13:42:08;14.10;99.90
22769;DHT22;13001;51.968;5.918;2024-03-22T13:44:35;14.20;99.90
22769;DHT22;13001;51.968;5.918;2024-03-22T13:47:04;14.10;99.90
22769;DHT22;13001;51.968;5.918;2024-03-22T13:49:31;14.00;99.90
22769;DHT22;13001;51.968;5.918;2024-03-22T13:51:59;14.00;99.90
22769;DHT22;13001;51.968;5.918;2024-03-22T13:54:26;13.90;99.90
22769;DHT22;13001;51.968;5.918;2024-03-22T13:56:54;14.00;99.90
22769;DHT22;13001;51.968;5.918;2024-03-22T13:59:21;14.10;99.90
22769;DHT22;13001;51.968;5.918;2024-03-22T14:01:49;14.20;99.90
22769;DHT22;13001;51.968;5.918;2024-03-22T14:04:17;14.10;99.90
22769;DHT22;13001;51.968;5.918;2024-03-22T14:06:46;14.10;99.90
22769;DHT22;13001;51.968;5.918;2024-03-22T14:09:14;14.10;99.90
22769;DHT22;13001;51.968;5.918;2024-03-22T14:11:42;14.00;99.90
22769;DHT22;13001;51.968;5.918;2024-03-22T14:14:10;14.00;99.90
22769;DHT22;13001;51.968;5.918;2024-03-22T14:16:41;14.00;99.90
22769;DHT22;13001;51.968;5.918;2024-03-22T14:19:08;14.00;99.90
22769;DHT22;13001;51.968;5.918;2024-03-22T14:21:37;14.10;99.90
22769;DHT22;13001;51.968;5.918;2024-03-22T14:24:07;14.10;99.90
22769;DHT22;13001;51.968;5.918;2024-03-22T14:26:35;14.10;99.90
22769;DHT22;13001;51.968;5.918;2024-03-22T14:29:04;14.10;99.90
22769;DHT22;13001;51.968;5.918;2024-03-22T14:31:31;14.00;99.90
22769;DHT22;13001;51.968;5.918;2024-03-22T14:34:00;14.00;99.90
22769;DHT22;13001;51.968;5.918;2024-03-22T14:36:27;14.10;99.90
22769;DHT22;13001;51.968;5.918;2024-03-22T14:38:55;14.10;99.90
22769;DHT22;13001;51.968;5.918;2024-03-22T14:41:22;14.20;99.90
22769;DHT22;13001;51.968;5.918;2024-03-22T14:43:50;14.20;99.90
22769;DHT22;13001;51.968;5.918;2024-03-22T14:46:17;14.10;99.90
22769;DHT22;13001;51.968;5.918;2024-03-22T14:48:48;14.00;99.90
22769;DHT22;13001;51.968;5.918;2024-03-22T14:51:15;13.90;99.90
22769;DHT22;13001;51.968;5.918;2024-03-22T14:53:43;13.90;99.90
22769;DHT22;13001;51.968;5.918;2024-03-22T14:56:10;13.80;99.90
22769;DHT22;13001;51.968;5.918;2024-03-22T14:58:39;13.70;99.90
22769;DHT22;13001;51.968;5.918;2024-03-22T15:01:09;13.80;99.90
22769;DHT22;13001;51.968;5.918;2024-03-22T15:03:37;13.80;99.90
22769;DHT22;13001;51.968;5.918;2024-03-22T15:06:04;13.80;99.90
22769;DHT22;13001;51.968;5.918;2024-03-22T15:08:32;13.80;99.90
22769;DHT22;13001;51.968;5.918;2024-03-22T15:10:59;13.80;99.90
22769;DHT22;13001;51.968;5.918;2024-03-22T15:13:27;13.70;99.90
22769;DHT22;13001;51.968;5.918;2024-03-22T15:15:57;13.70;99.90
22769;DHT22;13001;51.968;5.918;2024-03-22T15:18:26;13.70;99.90
22769;DHT22;13001;51.968;5.918;2024-03-22T15:20:56;13.60;99.90
22769;DHT22;13001;51.968;5.918;2024-03-22T15:23:23;13.60;99.90
22769;DHT22;13001;51.968;5.918;2024-03-22T15:25:51;13.60;99.90
22769;DHT22;13001;51.968;5.918;2024-03-22T15:28:18;13.50;99.90
22769;DHT22;13001;51.968;5.918;2024-03-22T15:30:47;13.50;99.90
22769;DHT22;13001;51.968;5.918;2024-03-22T15:33:14;13.40;99.90